createdAt,value
2023-05-20T00:02:12.155Z,99.90
2023-05-20T00:04:40.866Z,99.90
2023-05-20T00:07:08.069Z,99.90
2023-05-20T00:09:34.892Z,99.90
2023-05-20T00:12:02.659Z,99.90
2023-05-20T00:14:29.487Z,99.90
2023-05-20T00:16:56.425Z,99.90
2023-05-20T00:19:23.591Z,99.90
2023-05-20T00:21:50.500Z,99.90
2023-05-20T00:24:17.318Z,99.90
2023-05-20T00:26:44.227Z,99.90
2023-05-20T00:29:11.099Z,99.90
2023-05-20T00:31:37.977Z,99.90
2023-05-20T00:34:04.843Z,99.90
2023-05-20T00:36:31.731Z,99.90
2023-05-20T00:38:59.039Z,99.90
2023-05-20T00:41:26.218Z,99.90
2023-05-20T00:43:56.787Z,99.90
2023-05-20T00:46:28.353Z,99.90
2023-05-20T00:48:55.448Z,99.90
2023-05-20T00:51:22.395Z,99.90
2023-05-20T00:53:49.775Z,99.90
2023-05-20T00:56:16.734Z,99.90
2023-05-20T00:58:43.615Z,99.90
2023-05-20T01:01:10.573Z,99.90
2023-05-20T01:03:38.635Z,99.90
2023-05-20T01:06:05.713Z,99.90
2023-05-20T01:08:34.140Z,99.90
2023-05-20T01:11:08.597Z,99.90
2023-05-20T01:13:43.231Z,99.90
2023-05-20T01:16:11.881Z,99.90
2023-05-20T01:18:42.037Z,99.90
2023-05-20T01:21:13.861Z,99.90
2023-05-20T01:23:41.776Z,99.90
2023-05-20T01:26:10.207Z,99.90
2023-05-20T01:28:39.361Z,99.90
2023-05-20T01:31:14.672Z,99.90
2023-05-20T01:33:42.792Z,99.90
2023-05-20T01:36:10.946Z,99.90
2023-05-20T01:38:39.940Z,99.90
2023-05-20T01:41:07.733Z,99.90
2023-05-20T01:43:35.235Z,99.90
2023-05-20T01:46:02.992Z,99.90
2023-05-20T01:48:29.926Z,99.90
2023-05-20T01:50:56.885Z,99.90
2023-05-20T01:53:23.696Z,99.90
2023-05-20T01:55:50.953Z,99.90
2023-05-20T01:58:17.857Z,99.90
2023-05-20T02:00:44.757Z,99.90
2023-05-20T02:03:11.715Z,99.90
2023-05-20T02:05:38.834Z,99.90
2023-05-20T02:08:06.429Z,99.90
2023-05-20T02:10:33.294Z,99.90
2023-05-20T02:13:00.151Z,99.90
2023-05-20T02:15:26.971Z,99.90
2023-05-20T02:17:53.930Z,99.90
2023-05-20T02:20:20.769Z,99.90
2023-05-20T02:22:47.609Z,99.90
2023-05-20T02:25:14.511Z,99.90
2023-05-20T02:27:41.633Z,99.90
2023-05-20T02:30:09.081Z,99.90
2023-05-20T02:32:36.187Z,99.90
2023-05-20T02:35:03.114Z,99.90
2023-05-20T02:37:29.990Z,99.90
2023-05-20T02:39:56.868Z,99.90
2023-05-20T02:42:23.806Z,99.90
2023-05-20T02:44:50.708Z,99.90
2023-05-20T02:47:17.610Z,99.90
2023-05-20T02:49:44.508Z,99.90
2023-05-20T02:52:11.317Z,99.90
2023-05-20T02:54:38.193Z,99.90
2023-05-20T02:57:05.134Z,99.90
2023-05-20T02:59:32.055Z,99.90
2023-05-20T03:01:59.038Z,99.90
2023-05-20T03:04:27.099Z,99.90
2023-05-20T03:06:54.042Z,99.90
2023-05-20T03:09:20.904Z,99.90
2023-05-20T03:11:48.754Z,99.90
2023-05-20T03:14:15.784Z,99.90
2023-05-20T03:16:42.736Z,99.90
2023-05-20T03:19:09.676Z,99.90
2023-05-20T03:21:36.675Z,99.90
2023-05-20T03:24:03.733Z,99.90
2023-05-20T03:26:30.635Z,99.90
2023-05-20T03:28:57.454Z,99.90
2023-05-20T03:31:24.386Z,99.90
2023-05-20T03:33:51.209Z,99.90
2023-05-20T03:36:18.108Z,99.90
2023-05-20T03:38:44.955Z,99.90
2023-05-20T03:41:11.764Z,99.90
2023-05-20T03:43:38.609Z,99.90
2023-05-20T03:46:05.625Z,99.90
2023-05-20T03:48:32.413Z,99.90
2023-05-20T03:50:59.279Z,99.90
2023-05-20T03:53:26.317Z,99.90
2023-05-20T03:55:53.299Z,99.90
2023-05-20T03:58:23.408Z,99.90
2023-05-20T04:00:50.252Z,99.90
2023-05-20T04:03:17.303Z,99.90
2023-05-20T04:05:44.146Z,99.90
2023-05-20T04:08:13.641Z,99.90
2023-05-20T04:10:43.572Z,99.90
2023-05-20T04:13:11.556Z,99.90
2023-05-20T04:15:39.044Z,99.90
2023-05-20T04:18:06.446Z,99.90
2023-05-20T04:20:33.360Z,99.90
2023-05-20T04:23:00.368Z,99.50
2023-05-20T04:25:27.420Z,99.80
2023-05-20T04:27:54.502Z,99.90
2023-05-20T04:30:22.084Z,99.70
2023-05-20T04:32:50.712Z,98.80
2023-05-20T04:35:18.074Z,98.70
2023-05-20T04:37:47.676Z,98.70
2023-05-20T04:40:15.158Z,98.40
2023-05-20T04:42:42.027Z,98.00
2023-05-20T04:45:09.143Z,97.80
2023-05-20T04:47:38.831Z,97.90
2023-05-20T04:50:11.090Z,97.80
2023-05-20T04:52:39.225Z,97.20
2023-05-20T04:55:09.772Z,97.80
2023-05-20T04:57:39.668Z,97.10
2023-05-20T05:00:07.919Z,96.30
2023-05-20T05:02:35.647Z,96.40
2023-05-20T05:05:02.766Z,96.20
2023-05-20T05:07:29.643Z,96.20
2023-05-20T05:09:56.465Z,95.50
2023-05-20T05:12:23.467Z,95.00
2023-05-20T05:14:50.689Z,95.20
2023-05-20T05:17:17.592Z,96.00
2023-05-20T05:19:44.430Z,96.10
2023-05-20T05:22:11.252Z,96.00
2023-05-20T05:24:38.977Z,96.50
2023-05-20T05:27:06.090Z,96.00
2023-05-20T05:29:33.003Z,95.90
2023-05-20T05:31:59.924Z,95.50
2023-05-20T05:34:26.953Z,95.40
2023-05-20T05:36:53.851Z,95.20
2023-05-20T05:39:20.751Z,94.60
2023-05-20T05:41:47.568Z,94.40
2023-05-20T05:44:15.147Z,94.60
2023-05-20T05:46:42.050Z,94.50
2023-05-20T05:49:08.921Z,94.70
2023-05-20T05:51:38.213Z,94.70
2023-05-20T05:54:05.760Z,94.40
2023-05-20T05:56:32.628Z,93.90
2023-05-20T05:58:59.494Z,93.10
2023-05-20T06:01:26.587Z,92.60
2023-05-20T06:03:53.933Z,92.40
2023-05-20T06:06:20.966Z,92.10
2023-05-20T06:08:47.770Z,92.30
2023-05-20T06:11:14.717Z,91.20
2023-05-20T06:13:41.682Z,91.30
2023-05-20T06:16:08.660Z,91.70
2023-05-20T06:18:35.681Z,91.30
2023-05-20T06:21:03.402Z,91.20
2023-05-20T06:23:30.611Z,90.70
2023-05-20T06:26:01.482Z,90.30
2023-05-20T06:28:28.475Z,90.30
2023-05-20T06:30:56.098Z,90.30
2023-05-20T06:33:27.478Z,90.00
2023-05-20T06:35:59.015Z,90.70
2023-05-20T06:38:25.928Z,90.20
2023-05-20T06:40:52.941Z,90.20
2023-05-20T06:43:19.881Z,89.60
2023-05-20T06:45:46.759Z,88.10
2023-05-20T06:48:13.556Z,87.20
2023-05-20T06:50:40.501Z,86.60
2023-05-20T06:53:07.368Z,86.60
2023-05-20T06:55:34.403Z,87.00
2023-05-20T06:58:01.418Z,87.70
2023-05-20T07:00:28.259Z,86.40
2023-05-20T07:02:55.148Z,86.30
2023-05-20T07:05:22.123Z,85.70
2023-05-20T07:07:48.939Z,85.20
2023-05-20T07:10:15.768Z,83.10
2023-05-20T07:12:42.620Z,82.80
2023-05-20T07:15:09.957Z,82.50
2023-05-20T07:17:36.970Z,83.40
2023-05-20T07:20:04.404Z,84.20
2023-05-20T07:22:31.392Z,83.70
2023-05-20T07:24:59.492Z,83.10
2023-05-20T07:27:26.484Z,82.70
2023-05-20T07:29:53.356Z,82.10
2023-05-20T07:32:20.307Z,82.90
2023-05-20T07:34:47.159Z,83.80
2023-05-20T07:37:14.838Z,82.70
2023-05-20T07:39:41.694Z,82.70
2023-05-20T07:42:08.571Z,82.00
2023-05-20T07:44:35.467Z,80.30
2023-05-20T07:47:03.627Z,80.10
2023-05-20T07:49:30.413Z,79.20
2023-05-20T07:51:57.416Z,78.90
2023-05-20T07:54:24.485Z,79.10
2023-05-20T07:56:51.555Z,79.50
2023-05-20T07:59:18.488Z,79.30
2023-05-20T08:01:45.364Z,78.80
2023-05-20T08:04:12.338Z,78.00
2023-05-20T08:06:39.898Z,78.20
2023-05-20T08:09:07.325Z,78.40
2023-05-20T08:11:34.130Z,78.80
2023-05-20T08:14:02.118Z,79.10
2023-05-20T08:16:29.070Z,79.30
2023-05-20T08:18:56.138Z,78.30
2023-05-20T08:21:23.500Z,78.40
2023-05-20T08:23:50.288Z,77.30
2023-05-20T08:26:17.146Z,75.60
2023-05-20T08:28:44.005Z,75.50
2023-05-20T08:31:10.904Z,77.20
2023-05-20T08:33:37.851Z,77.40
2023-05-20T08:36:04.839Z,76.10
2023-05-20T08:38:31.678Z,77.20
2023-05-20T08:40:58.580Z,77.70
2023-05-20T08:43:26.590Z,78.10
2023-05-20T08:45:53.733Z,77.60
2023-05-20T08:48:23.189Z,77.90
2023-05-20T08:50:53.641Z,77.90
2023-05-20T08:53:22.776Z,77.60
2023-05-20T08:56:03.094Z,77.00
2023-05-20T08:58:33.041Z,75.90
2023-05-20T09:01:00.136Z,76.60
2023-05-20T09:03:27.190Z,76.70
2023-05-20T09:05:54.350Z,76.00
2023-05-20T09:08:28.408Z,75.40
2023-05-20T09:10:55.253Z,74.10
2023-05-20T09:13:24.046Z,75.10
2023-05-20T09:15:51.064Z,74.50
2023-05-20T09:18:18.018Z,73.30
2023-05-20T09:20:48.126Z,74.00
2023-05-20T09:23:14.934Z,74.70
2023-05-20T09:25:42.048Z,74.60
2023-05-20T09:28:09.384Z,75.10
2023-05-20T09:30:36.421Z,75.70
2023-05-20T09:33:05.466Z,74.80
2023-05-20T09:35:37.538Z,75.40
2023-05-20T09:38:08.038Z,76.50
2023-05-20T09:40:37.794Z,75.60
2023-05-20T09:43:08.426Z,75.30
2023-05-20T09:45:35.860Z,75.00
2023-05-20T09:48:05.719Z,74.80
2023-05-20T09:50:32.760Z,74.40
2023-05-20T09:53:03.802Z,73.40
2023-05-20T09:55:31.744Z,72.30
2023-05-20T09:58:03.234Z,73.40
2023-05-20T10:00:30.805Z,73.40
2023-05-20T10:02:58.794Z,73.60
2023-05-20T10:05:58.114Z,72.70
2023-05-20T10:08:36.945Z,72.90
2023-05-20T10:11:44.489Z,73.20
2023-05-20T10:14:42.177Z,72.80
2023-05-20T10:17:30.382Z,71.80
2023-05-20T10:20:01.407Z,72.50
2023-05-20T10:22:29.629Z,71.40
2023-05-20T10:25:00.732Z,71.40
2023-05-20T10:27:27.577Z,71.50
2023-05-20T10:29:57.198Z,71.90
2023-05-20T10:32:31.552Z,72.30
2023-05-20T10:35:05.010Z,72.50
2023-05-20T10:37:50.570Z,72.40
2023-05-20T10:40:19.766Z,73.10
2023-05-20T10:42:48.047Z,72.00
2023-05-20T10:45:28.852Z,72.10
2023-05-20T10:47:57.372Z,72.80
2023-05-20T10:50:36.280Z,73.60
2023-05-20T10:53:13.038Z,71.80
2023-05-20T10:55:53.445Z,71.60
2023-05-20T10:58:23.746Z,71.70
2023-05-20T11:00:54.971Z,72.40
2023-05-20T11:03:26.016Z,72.50
2023-05-20T11:05:52.968Z,71.70
2023-05-20T11:08:27.814Z,71.70
2023-05-20T11:10:57.336Z,71.90
2023-05-20T11:13:25.087Z,72.40
2023-05-20T11:15:52.123Z,70.70
2023-05-20T11:18:19.185Z,71.50
2023-05-20T11:20:47.079Z,71.30
2023-05-20T11:23:15.246Z,70.90
2023-05-20T11:25:42.362Z,70.50
2023-05-20T11:28:15.297Z,70.50
2023-05-20T11:30:45.587Z,70.00
2023-05-20T11:33:13.896Z,69.90
2023-05-20T11:35:49.936Z,70.80
2023-05-20T11:38:17.409Z,70.70
2023-05-20T11:40:51.873Z,71.00
2023-05-20T11:43:19.638Z,70.00
2023-05-20T11:45:52.507Z,70.50
2023-05-20T11:48:19.796Z,71.10
2023-05-20T11:50:48.243Z,70.40
2023-05-20T11:53:17.817Z,70.00
2023-05-20T11:55:46.646Z,69.70
2023-05-20T11:58:17.227Z,68.90
2023-05-20T12:03:17.149Z,67.90
2023-05-20T12:05:44.386Z,67.20
2023-05-20T12:08:11.479Z,67.50
2023-05-20T12:10:38.352Z,67.50
2023-05-20T12:13:08.733Z,67.40
2023-05-20T12:15:39.267Z,66.80
2023-05-20T12:18:06.385Z,67.20
2023-05-20T12:20:37.278Z,67.20
2023-05-20T12:23:04.894Z,67.20
2023-05-20T12:25:31.819Z,67.30
2023-05-20T12:27:59.623Z,67.50
2023-05-20T12:30:26.454Z,67.10
2023-05-20T12:32:53.979Z,66.00
2023-05-20T12:35:40.750Z,66.10
2023-05-20T12:38:08.298Z,65.80
2023-05-20T12:40:36.423Z,66.00
2023-05-20T12:43:04.728Z,66.30
2023-05-20T12:45:31.823Z,64.80
2023-05-20T12:47:59.134Z,64.90
2023-05-20T12:50:26.026Z,65.40
2023-05-20T12:52:53.203Z,65.50
2023-05-20T12:55:20.102Z,65.20
2023-05-20T12:57:48.530Z,65.30
2023-05-20T13:00:16.029Z,65.40
2023-05-20T13:02:43.559Z,65.60
2023-05-20T13:05:11.326Z,65.30
2023-05-20T13:07:38.645Z,66.20
2023-05-20T13:10:06.899Z,67.00
2023-05-20T13:12:34.805Z,66.60
2023-05-20T13:15:01.720Z,66.60
2023-05-20T13:17:28.556Z,65.70
2023-05-20T13:19:55.968Z,64.80
2023-05-20T13:22:23.209Z,64.00
2023-05-20T13:24:50.119Z,63.30
2023-05-20T13:27:16.947Z,63.50
2023-05-20T13:29:43.865Z,63.40
2023-05-20T13:32:10.924Z,63.40
2023-05-20T13:34:38.813Z,63.60
2023-05-20T13:37:06.373Z,64.00
2023-05-20T13:39:33.272Z,64.50
2023-05-20T13:42:00.317Z,64.60
2023-05-20T13:44:27.179Z,64.70
2023-05-20T13:46:54.147Z,64.40
2023-05-20T13:49:21.602Z,63.50
2023-05-20T13:51:48.480Z,62.60
2023-05-20T13:54:15.593Z,62.20
2023-05-20T13:56:42.666Z,62.50
2023-05-20T13:59:09.516Z,62.20
2023-05-20T14:01:39.017Z,61.70
2023-05-20T14:04:07.395Z,61.50
2023-05-20T14:06:34.338Z,61.90
2023-05-20T14:09:03.034Z,62.10
2023-05-20T14:11:29.851Z,63.00
2023-05-20T14:13:56.643Z,63.50
2023-05-20T14:16:23.650Z,63.40
2023-05-20T14:18:50.597Z,62.10
2023-05-20T14:21:17.601Z,62.70
2023-05-20T14:23:45.112Z,63.30
2023-05-20T14:26:11.975Z,63.60
2023-05-20T14:28:39.775Z,64.00
2023-05-20T14:31:08.978Z,63.50
2023-05-20T14:33:36.798Z,63.80
2023-05-20T14:36:04.127Z,64.30
2023-05-20T14:38:31.139Z,64.40
2023-05-20T14:40:58.004Z,63.60
2023-05-20T14:43:24.942Z,63.80
2023-05-20T14:45:52.788Z,62.70
2023-05-20T14:48:19.648Z,62.00
2023-05-20T14:50:48.324Z,61.50
2023-05-20T14:53:17.292Z,61.90
2023-05-20T14:55:44.134Z,61.90
2023-05-20T14:58:11.069Z,62.20
2023-05-20T15:00:38.736Z,62.00
2023-05-20T15:03:05.953Z,61.90
2023-05-20T15:05:32.928Z,62.00
2023-05-20T15:08:00.573Z,62.60
2023-05-20T15:10:27.632Z,62.80
2023-05-20T15:12:54.912Z,63.30
2023-05-20T15:15:21.862Z,64.00
2023-05-20T15:17:48.784Z,63.30
2023-05-20T15:20:15.802Z,63.70
2023-05-20T15:22:45.797Z,63.40
2023-05-20T15:25:12.693Z,63.40
2023-05-20T15:27:41.426Z,63.40
2023-05-20T15:30:09.067Z,63.30
2023-05-20T15:32:36.106Z,62.80
2023-05-20T15:35:04.207Z,63.00
2023-05-20T15:37:31.096Z,63.50
2023-05-20T15:39:58.036Z,63.50
2023-05-20T15:42:25.041Z,63.10
2023-05-20T15:44:51.919Z,62.90
2023-05-20T15:47:18.748Z,63.20
2023-05-20T15:49:45.670Z,63.30
2023-05-20T15:52:14.046Z,64.00
2023-05-20T15:54:41.086Z,63.80
2023-05-20T15:57:10.730Z,63.90
2023-05-20T15:59:37.557Z,63.70
2023-05-20T16:02:04.565Z,63.90
2023-05-20T16:04:32.707Z,64.40
2023-05-20T16:06:59.716Z,64.60
2023-05-20T16:09:26.545Z,64.90
2023-05-20T16:11:53.429Z,65.00
2023-05-20T16:14:20.506Z,65.40
2023-05-20T16:16:47.429Z,64.80
2023-05-20T16:19:14.485Z,65.10
2023-05-20T16:21:41.344Z,65.60
2023-05-20T16:24:08.197Z,66.10
2023-05-20T16:26:35.027Z,66.10
2023-05-20T16:29:01.849Z,66.30
2023-05-20T16:31:28.703Z,66.90
2023-05-20T16:33:56.358Z,66.50
2023-05-20T16:36:23.530Z,66.40
2023-05-20T16:38:50.571Z,66.20
2023-05-20T16:41:17.467Z,66.50
2023-05-20T16:43:44.344Z,66.70
2023-05-20T16:46:12.867Z,67.20
2023-05-20T16:48:40.097Z,67.30
2023-05-20T16:51:06.946Z,67.20
2023-05-20T16:53:33.886Z,67.60
2023-05-20T16:56:00.752Z,67.70
2023-05-20T16:58:27.565Z,67.70
2023-05-20T17:00:55.277Z,67.80
2023-05-20T17:03:22.364Z,68.00
2023-05-20T17:05:49.450Z,67.90
2023-05-20T17:08:16.435Z,68.30
2023-05-20T17:10:43.311Z,68.40
2023-05-20T17:13:10.223Z,68.30
2023-05-20T17:15:37.339Z,68.50
2023-05-20T17:18:04.426Z,68.40
2023-05-20T17:20:31.704Z,68.80
2023-05-20T17:22:58.920Z,68.90
2023-05-20T17:25:26.087Z,69.10
2023-05-20T17:27:52.915Z,69.00
2023-05-20T17:30:19.916Z,69.10
2023-05-20T17:32:46.837Z,69.30
2023-05-20T17:35:13.772Z,69.50
2023-05-20T17:37:40.634Z,69.10
2023-05-20T17:40:08.031Z,69.40
2023-05-20T17:42:34.888Z,69.00
2023-05-20T17:45:01.827Z,69.00
2023-05-20T17:47:28.678Z,69.40
2023-05-20T17:49:56.768Z,69.50
2023-05-20T17:52:23.595Z,69.80
2023-05-20T17:54:50.546Z,69.90
2023-05-20T17:57:17.741Z,70.40
2023-05-20T17:59:45.602Z,70.50
2023-05-20T18:02:12.823Z,70.20
2023-05-20T18:04:39.742Z,70.60
2023-05-20T18:07:07.512Z,70.90
2023-05-20T18:09:34.461Z,71.10
2023-05-20T18:12:01.336Z,71.00
2023-05-20T18:14:28.121Z,71.00
2023-05-20T18:16:54.914Z,71.20
2023-05-20T18:19:21.857Z,71.40
2023-05-20T18:21:48.936Z,71.90
2023-05-20T18:24:16.780Z,72.20
2023-05-20T18:26:43.826Z,72.60
2023-05-20T18:29:12.393Z,72.50
2023-05-20T18:31:40.433Z,72.20
2023-05-20T18:34:09.020Z,72.10
2023-05-20T18:36:35.926Z,72.40
2023-05-20T18:39:02.865Z,72.50
2023-05-20T18:41:43.223Z,72.80
2023-05-20T18:44:15.640Z,72.80
2023-05-20T18:46:42.852Z,73.20
2023-05-20T18:49:12.951Z,73.50
2023-05-20T18:51:40.381Z,73.30
2023-05-20T18:54:07.749Z,73.60
2023-05-20T18:56:34.946Z,73.90
2023-05-20T18:59:01.850Z,73.90
2023-05-20T19:01:28.805Z,73.60
2023-05-20T19:03:55.811Z,73.70
2023-05-20T19:06:22.848Z,73.60
2023-05-20T19:08:49.894Z,73.70
2023-05-20T19:11:17.018Z,74.10
2023-05-20T19:13:43.929Z,73.90
2023-05-20T19:16:11.192Z,73.80
2023-05-20T19:18:38.165Z,74.10
2023-05-20T19:21:05.018Z,73.90
2023-05-20T19:23:32.591Z,73.90
2023-05-20T19:25:59.524Z,74.60
2023-05-20T19:28:26.448Z,75.00
2023-05-20T19:30:53.664Z,74.60
2023-05-20T19:33:20.972Z,75.00
2023-05-20T19:35:48.261Z,75.10
2023-05-20T19:38:15.606Z,74.70
2023-05-20T19:40:44.121Z,74.50
2023-05-20T19:43:11.421Z,74.50
2023-05-20T19:45:38.591Z,74.70
2023-05-20T19:48:06.500Z,75.10
2023-05-20T19:50:34.040Z,75.20
2023-05-20T19:53:03.193Z,75.10
2023-05-20T19:55:30.169Z,75.00
2023-05-20T19:57:57.318Z,75.20
2023-05-20T20:00:24.206Z,75.50
2023-05-20T20:02:51.293Z,75.80
2023-05-20T20:05:18.508Z,75.80
2023-05-20T20:07:45.985Z,76.30
2023-05-20T20:10:12.814Z,76.50
2023-05-20T20:12:39.700Z,76.50
2023-05-20T20:15:07.314Z,76.60
2023-05-20T20:17:34.218Z,76.70
2023-05-20T20:20:01.322Z,76.90
2023-05-20T20:22:28.228Z,77.00
2023-05-20T20:24:55.137Z,77.50
2023-05-20T20:27:23.862Z,77.10
2023-05-20T20:29:51.286Z,77.20
2023-05-20T20:32:18.431Z,77.30
2023-05-20T20:34:46.017Z,77.60
2023-05-20T20:37:15.123Z,77.70
2023-05-20T20:39:42.987Z,77.80
2023-05-20T20:42:10.590Z,77.80
2023-05-20T20:44:37.420Z,78.00
2023-05-20T20:47:05.146Z,78.10
2023-05-20T20:49:32.265Z,78.50
2023-05-20T20:51:59.355Z,78.70
2023-05-20T20:54:26.588Z,78.90
2023-05-20T20:56:56.698Z,79.00
2023-05-20T20:59:26.589Z,79.30
2023-05-20T21:01:54.127Z,79.20
2023-05-20T21:04:21.611Z,79.60
2023-05-20T21:06:48.576Z,79.70
2023-05-20T21:09:15.870Z,79.80
2023-05-20T21:11:43.235Z,80.10
2023-05-20T21:14:10.385Z,80.20
2023-05-20T21:16:37.478Z,80.40
2023-05-20T21:19:04.668Z,80.60
2023-05-20T21:21:31.805Z,80.60
2023-05-20T21:23:58.728Z,80.80
2023-05-20T21:26:26.573Z,81.00
2023-05-20T21:28:53.482Z,81.20
2023-05-20T21:31:20.490Z,81.40
2023-05-20T21:33:47.373Z,81.60
2023-05-20T21:36:14.286Z,82.20
2023-05-20T21:38:41.181Z,82.50
2023-05-20T21:41:08.411Z,82.80
2023-05-20T21:43:36.128Z,83.10
2023-05-20T21:46:03.127Z,83.30
2023-05-20T21:48:30.029Z,83.60
2023-05-20T21:50:56.873Z,84.20
2023-05-20T21:53:23.704Z,84.80
2023-05-20T21:55:50.727Z,85.00
2023-05-20T21:58:17.592Z,85.10
2023-05-20T22:00:45.052Z,85.70
2023-05-20T22:03:13.007Z,86.10
2023-05-20T22:05:40.935Z,86.50
2023-05-20T22:08:08.064Z,87.10
2023-05-20T22:10:36.487Z,87.00
2023-05-20T22:13:03.415Z,87.40
2023-05-20T22:15:31.449Z,87.60
2023-05-20T22:17:58.601Z,87.80
2023-05-20T22:20:25.672Z,88.20
2023-05-20T22:22:52.611Z,88.90
2023-05-20T22:25:19.661Z,89.10
2023-05-20T22:27:47.113Z,89.30
2023-05-20T22:30:14.128Z,90.00
2023-05-20T22:32:41.377Z,90.10
2023-05-20T22:35:09.049Z,90.60
2023-05-20T22:37:35.914Z,90.80
2023-05-20T22:40:04.076Z,91.20
2023-05-20T22:42:30.903Z,91.20
2023-05-20T22:44:57.693Z,91.60
2023-05-20T22:47:24.594Z,91.30
2023-05-20T22:49:51.412Z,91.50
2023-05-20T22:52:18.763Z,91.80
2023-05-20T22:54:45.681Z,92.20
2023-05-20T22:57:12.748Z,92.50
2023-05-20T22:59:40.387Z,92.50
2023-05-20T23:02:08.183Z,92.90
2023-05-20T23:04:35.183Z,93.20
2023-05-20T23:07:02.113Z,93.00
2023-05-20T23:09:29.261Z,93.40
2023-05-20T23:11:56.104Z,93.30
2023-05-20T23:14:23.590Z,93.60
2023-05-20T23:16:50.596Z,94.00
2023-05-20T23:19:17.681Z,94.30
2023-05-20T23:21:44.588Z,94.50
2023-05-20T23:24:12.007Z,94.10
2023-05-20T23:26:39.617Z,94.50
2023-05-20T23:29:06.529Z,94.50
2023-05-20T23:31:33.748Z,94.80
2023-05-20T23:34:01.632Z,95.10
2023-05-20T23:36:35.202Z,94.80
2023-05-20T23:39:03.322Z,95.10
2023-05-20T23:41:30.338Z,94.90
2023-05-20T23:43:57.224Z,95.20
2023-05-20T23:46:24.129Z,95.40
2023-05-20T23:48:51.097Z,95.40
2023-05-20T23:51:18.261Z,95.30
2023-05-20T23:53:45.429Z,95.20
2023-05-20T23:56:12.249Z,95.30
2023-05-20T23:58:39.069Z,95.30
